Time;durP1;ratioP1;P1;durP2;ratioP2;P2;SDS_P1;SDS_P2;PMS_P1;PMS_P2;Temp;Humidity;BMP_temperature;BMP_pressure;BME280_temperature;BME280_humidity;BME280_pressure;Samples;Min_cycle;Max_cycle;Signal;HPM_P1;HPM_P2
2023/06/11 00:01:49;;;;;;;6.73;6.23;;;;;;;21.80;100.00;99961.34;5015085;28;20260;-60
2023/06/11 00:04:19;;;;;;;6.97;6.30;;;;;;;21.80;100.00;99961.34;5013097;28;20298;-60
2023/06/11 00:06:45;;;;;;;6.17;5.67;;;;;;;21.72;100.00;99959.53;5011380;28;20565;-60
2023/06/11 00:09:10;;;;;;;8.33;5.63;;;;;;;21.69;100.00;99962.47;5011371;28;20198;-60
2023/06/11 00:11:41;;;;;;;6.50;6.00;;;;;;;21.66;100.00;99956.75;5013383;28;20226;-60
2023/06/11 00:14:07;;;;;;;6.03;5.63;;;;;;;21.60;100.00;99960.81;5013816;28;20175;-60
2023/06/11 00:16:32;;;;;;;5.73;5.03;;;;;;;21.60;100.00;99966.88;5010922;28;20178;-60
2023/06/11 00:18:58;;;;;;;8.23;5.90;;;;;;;21.62;100.00;99966.72;5011303;28;20221;-60
2023/06/11 00:21:23;;;;;;;8.80;5.60;;;;;;;21.57;100.00;99961.97;5011391;28;20241;-60
2023/06/11 00:23:48;;;;;;;7.77;5.83;;;;;;;21.62;100.00;99961.50;5016103;28;20183;-60
2023/06/11 00:26:14;;;;;;;6.03;5.53;;;;;;;21.62;100.00;99968.50;5010546;28;20197;-60
2023/06/11 00:28:39;;;;;;;7.83;5.73;;;;;;;21.56;100.00;99970.78;4995305;28;20299;-60
2023/06/11 00:31:04;;;;;;;6.40;5.80;;;;;;;21.53;100.00;99965.84;5007099;28;20287;-60
2023/06/11 00:33:29;;;;;;;6.53;5.97;;;;;;;21.55;100.00;99966.50;5022495;28;20630;-60
2023/06/11 00:35:55;;;;;;;6.30;5.70;;;;;;;21.44;100.00;99975.44;5014290;28;20580;-60
2023/06/11 00:38:21;;;;;;;5.93;5.43;;;;;;;21.47;100.00;99974.34;5014833;28;20179;-61
2023/06/11 00:40:47;;;;;;;6.27;5.67;;;;;;;21.44;100.00;99980.69;5010269;28;20218;-60
2023/06/11 00:43:12;;;;;;;6.73;6.13;;;;;;;21.39;100.00;99969.06;5024151;28;20182;-60
2023/06/11 00:45:37;;;;;;;6.57;5.93;;;;;;;21.40;100.00;99971.50;5014624;28;20183;-60
2023/06/11 00:48:03;;;;;;;7.07;6.37;;;;;;;21.36;100.00;99966.75;5014722;28;20656;-60
2023/06/11 00:50:29;;;;;;;7.03;6.43;;;;;;;21.25;100.00;99963.44;5007917;28;20276;-60
2023/06/11 00:52:54;;;;;;;6.90;6.30;;;;;;;21.24;100.00;99969.63;5012955;28;20183;-60
2023/06/11 00:55:21;;;;;;;6.50;6.00;;;;;;;21.19;100.00;99965.88;5014215;28;20175;-60
2023/06/11 00:57:48;;;;;;;6.63;5.80;;;;;;;21.23;100.00;99968.00;5011954;28;20187;-61
2023/06/11 01:00:14;;;;;;;7.33;6.27;;;;;;;21.11;100.00;99970.09;5005832;28;20181;-61
2023/06/11 01:02:53;;;;;;;8.53;5.47;;;;;;;21.01;100.00;99966.75;5028128;28;20186;-60
2023/06/11 01:05:21;;;;;;;6.87;5.97;;;;;;;20.99;100.00;99967.88;5014135;28;20676;-60
2023/06/11 01:07:50;;;;;;;6.23;5.73;;;;;;;20.99;100.00;99960.03;5014249;28;20182;-61
2023/06/11 01:10:17;;;;;;;7.17;6.47;;;;;;;20.98;100.00;99966.25;5005572;28;20181;-61
2023/06/11 01:12:43;;;;;;;7.03;6.30;;;;;;;20.93;100.00;99964.09;5027446;28;20222;-60
2023/06/11 01:15:14;;;;;;;6.50;6.00;;;;;;;20.88;100.00;99967.16;5014006;28;20175;-60
2023/06/11 01:18:23;;;;;;;6.67;6.17;;;;;;;20.81;100.00;99960.91;5013873;28;20183;-60
2023/06/11 01:21:07;;;;;;;7.10;6.50;;;;;;;20.75;100.00;99959.75;4963044;28;20255;-60
2023/06/11 01:23:42;;;;;;;7.10;6.43;;;;;;;20.70;100.00;99967.19;4972640;28;20550;-60
2023/06/11 01:26:13;;;;;;;6.13;5.63;;;;;;;20.72;100.00;99975.72;4972409;28;20187;-60
2023/06/11 01:28:39;;;;;;;8.80;6.50;;;;;;;20.67;100.00;99964.88;4972516;28;20204;-60
2023/06/11 01:31:14;;;;;;;6.50;6.00;;;;;;;20.62;100.00;99967.94;4962645;28;20235;-61
2023/06/11 01:33:41;;;;;;;7.23;6.53;;;;;;;20.59;100.00;99972.66;4972433;28;20195;-60
2023/06/11 01:36:06;;;;;;;6.87;6.27;;;;;;;20.51;100.00;99983.06;4972159;28;20184;-60
2023/06/11 01:38:41;;;;;;;7.13;6.43;;;;;;;20.47;100.00;99977.31;4972213;28;20302;-61
2023/06/11 01:41:09;;;;;;;7.90;6.43;;;;;;;20.45;100.00;99976.63;4957454;28;20721;-60
2023/06/11 01:43:34;;;;;;;7.27;6.57;;;;;;;20.35;100.00;99984.53;4964245;28;20290;-60
2023/06/11 01:46:00;;;;;;;7.27;6.37;;;;;;;20.34;100.00;99976.88;4971736;28;20233;-60
2023/06/11 01:48:26;;;;;;;8.13;6.93;;;;;;;20.29;100.00;99978.16;4972095;28;20212;-60
2023/06/11 01:50:51;;;;;;;7.83;6.73;;;;;;;20.30;100.00;99974.56;4971189;28;20250;-60
2023/06/11 01:53:16;;;;;;;8.43;6.27;;;;;;;20.21;100.00;99980.66;5013956;28;20601;-60
2023/06/11 01:55:42;;;;;;;7.17;6.47;;;;;;;20.24;100.00;99976.94;5012925;28;20217;-60
2023/06/11 01:58:08;;;;;;;9.30;6.67;;;;;;;20.20;100.00;99973.81;5013355;28;20182;-60
2023/06/11 02:00:33;;;;;;;7.00;6.33;;;;;;;20.08;100.00;99978.44;5006791;28;20511;-60
2023/06/11 02:03:01;;;;;;;7.97;7.17;;;;;;;20.16;100.00;99973.28;5024780;28;20291;-60
2023/06/11 02:05:27;;;;;;;7.57;6.83;;;;;;;20.06;100.00;99969.94;5012727;28;20190;-60
2023/06/11 02:07:52;;;;;;;7.93;6.80;;;;;;;19.99;100.00;99972.31;5012032;28;20537;-60
2023/06/11 02:10:17;;;;;;;7.83;7.00;;;;;;;19.96;100.00;99972.59;5004628;28;20183;-60
2023/06/11 02:12:42;;;;;;;7.63;6.90;;;;;;;19.89;100.00;99982.00;5026587;28;20674;-60
2023/06/11 02:15:08;;;;;;;7.13;6.60;;;;;;;19.87;100.00;99978.72;5012659;28;20262;-60
2023/06/11 02:17:34;;;;;;;6.63;6.03;;;;;;;19.87;100.00;99980.50;5013094;28;20194;-60
2023/06/11 02:19:59;;;;;;;7.37;6.67;;;;;;;19.83;100.00;99977.34;5013068;28;20179;-60
2023/06/11 02:22:24;;;;;;;6.67;6.17;;;;;;;19.81;100.00;99981.88;5018306;28;20234;-60
2023/06/11 02:24:50;;;;;;;8.73;6.47;;;;;;;19.77;100.00;99983.13;5011360;28;20202;-60
2023/06/11 02:27:15;;;;;;;7.20;6.47;;;;;;;19.71;100.00;99984.56;5012514;28;20197;-60
2023/06/11 02:29:40;;;;;;;6.63;6.03;;;;;;;19.62;100.00;99986.25;5002348;28;20285;-61
2023/06/11 02:32:06;;;;;;;6.87;6.23;;;;;;;19.62;100.00;99983.63;5015284;28;20225;-60
2023/06/11 02:34:32;;;;;;;7.10;6.50;;;;;;;19.70;100.00;99985.50;5012685;28;20218;-60
2023/06/11 02:36:57;;;;;;;8.73;6.57;;;;;;;19.59;100.00;99988.31;5012093;28;20190;-60
2023/06/11 02:39:22;;;;;;;11.17;6.80;;;;;;;19.56;100.00;99997.25;5012664;28;20179;-60
2023/06/11 02:41:48;;;;;;;6.63;6.00;;;;;;;19.54;100.00;99993.97;5015939;28;20250;-61
2023/06/11 02:44:13;;;;;;;7.83;6.23;;;;;;;19.59;100.00;99990.94;5014179;28;20194;-61
2023/06/11 02:46:38;;;;;;;6.60;6.03;;;;;;;19.51;100.00;99994.25;5012310;28;20198;-62
2023/06/11 02:49:03;;;;;;;8.17;7.17;;;;;;;19.43;100.00;99992.38;5012465;28;20202;-61
2023/06/11 02:51:29;;;;;;;6.77;6.07;;;;;;;19.38;100.00;99997.19;5013300;28;20236;-61
2023/06/11 02:53:54;;;;;;;8.40;6.83;;;;;;;19.37;100.00;99998.16;5016691;28;20224;-61
2023/06/11 02:56:19;;;;;;;6.73;6.20;;;;;;;19.33;100.00;100002.81;5011527;28;20197;-61
2023/06/11 02:58:45;;;;;;;8.10;6.40;;;;;;;19.28;100.00;99996.41;5012217;28;20642;-61
2023/06/11 03:01:10;;;;;;;7.23;6.57;;;;;;;19.32;100.00;100000.38;4981296;28;20234;-61
2023/06/11 03:03:35;;;;;;;8.43;7.33;;;;;;;19.29;100.00;100004.09;5000501;28;20183;-61
2023/06/11 03:06:00;;;;;;;7.13;6.53;;;;;;;19.15;100.00;100005.38;5011932;28;20202;-61
2023/06/11 03:08:26;;;;;;;8.63;6.57;;;;;;;19.21;100.00;100010.97;5011960;28;20668;-62
2023/06/11 03:10:51;;;;;;;7.20;6.50;;;;;;;19.15;100.00;100009.75;5008407;28;20232;-61
2023/06/11 03:13:16;;;;;;;7.27;6.57;;;;;;;19.22;100.00;100017.84;5020732;28;20219;-61
2023/06/11 03:15:41;;;;;;;7.60;6.90;;;;;;;19.16;100.00;100009.63;5006720;28;20677;-61
2023/06/11 03:18:07;;;;;;;6.77;6.23;;;;;;;19.11;100.00;100014.44;5022102;28;20177;-59
2023/06/11 03:20:32;;;;;;;7.57;6.73;;;;;;;19.13;100.00;100016.91;5005617;28;20229;-59
2023/06/11 03:22:57;;;;;;;7.13;6.53;;;;;;;19.17;100.00;100015.66;5023441;28;20206;-60
2023/06/11 03:25:22;;;;;;;10.73;6.80;;;;;;;19.15;100.00;100015.81;5011413;28;20195;-60
2023/06/11 03:27:48;;;;;;;7.77;6.93;;;;;;;19.16;100.00;100016.63;5011707;28;20170;-60
2023/06/11 03:30:13;;;;;;;7.63;6.87;;;;;;;19.24;100.00;100024.56;4968673;28;20215;-61
2023/06/11 03:32:40;;;;;;;7.73;7.03;;;;;;;19.28;100.00;100019.88;5011097;28;20182;-60
2023/06/11 03:35:05;;;;;;;7.67;6.90;;;;;;;19.21;100.00;100022.22;5011216;28;20186;-61
2023/06/11 03:37:30;;;;;;;7.07;6.47;;;;;;;19.10;100.00;100017.19;5011764;28;20201;-61
2023/06/11 03:39:56;;;;;;;7.30;6.60;;;;;;;19.09;100.00;100023.34;5011684;28;20218;-61
2023/06/11 03:42:21;;;;;;;7.07;6.37;;;;;;;19.13;100.00;100020.34;5016712;28;20217;-61
2023/06/11 03:44:48;;;;;;;7.47;6.60;;;;;;;19.10;100.00;100022.41;5011658;28;20183;-61
2023/06/11 03:47:13;;;;;;;7.73;7.03;;;;;;;19.12;100.00;100023.91;5011474;28;20171;-60
2023/06/11 03:49:38;;;;;;;7.80;7.00;;;;;;;19.21;100.00;100024.81;5011660;28;20257;-61
2023/06/11 03:52:04;;;;;;;7.03;6.50;;;;;;;19.25;100.00;100031.44;5017118;28;20234;-60
2023/06/11 03:54:29;;;;;;;7.47;6.80;;;;;;;19.16;100.00;100035.72;5011330;28;20264;-60
2023/06/11 03:56:54;;;;;;;8.33;6.67;;;;;;;19.23;100.00;100038.56;5011076;28;20205;-60
2023/06/11 03:59:20;;;;;;;9.40;7.20;;;;;;;19.23;100.00;100035.13;5011574;28;20179;-61
2023/06/11 04:01:45;;;;;;;8.10;6.70;;;;;;;19.18;100.00;100032.94;5014735;28;20229;-60
2023/06/11 04:04:10;;;;;;;8.10;6.73;;;;;;;19.20;100.00;100038.81;5013573;28;20285;-60
2023/06/11 04:06:40;;;;;;;7.67;6.97;;;;;;;19.24;100.00;100040.22;5011710;28;20648;-60
2023/06/11 04:09:08;;;;;;;8.03;6.83;;;;;;;19.35;100.00;100042.63;5015296;28;20225;-60
2023/06/11 04:11:34;;;;;;;7.90;6.67;;;;;;;19.29;100.00;100042.41;5016852;28;20229;-60
2023/06/11 04:13:59;;;;;;;7.50;6.87;;;;;;;19.35;100.00;100040.03;5018913;28;20608;-60
2023/06/11 04:16:24;;;;;;;7.67;6.47;;;;;;;19.35;100.00;100044.44;5013447;28;20200;-60
2023/06/11 04:18:50;;;;;;;7.73;6.67;;;;;;;19.35;100.00;100047.03;5015229;28;20186;-61
2023/06/11 04:21:15;;;;;;;7.03;6.33;;;;;;;19.35;100.00;100047.03;5014646;28;20308;-60
2023/06/11 04:23:41;;;;;;;6.90;6.20;;;;;;;19.26;100.00;100043.47;5020988;28;20205;-61
2023/06/11 04:26:09;;;;;;;8.27;6.83;;;;;;;19.31;100.00;100037.84;5014634;28;20206;-61
2023/06/11 04:28:35;;;;;;;6.80;6.20;;;;;;;19.34;100.00;100042.78;5013179;28;20289;-60
2023/06/11 04:31:01;;;;;;;6.80;5.77;;;;;;;19.42;100.00;100042.06;5001120;28;20244;-60
2023/06/11 04:33:32;;;;;;;6.73;6.17;;;;;;;19.43;100.00;100041.13;5022640;28;20182;-60
2023/06/11 04:36:04;;;;;;;9.93;7.20;;;;;;;19.48;100.00;100039.69;5014719;28;20179;-60
2023/06/11 04:38:31;;;;;;;6.70;6.17;;;;;;;19.48;100.00;100044.09;5014446;28;20179;-61
2023/06/11 04:40:56;;;;;;;7.37;6.70;;;;;;;19.59;100.00;100053.56;5011986;28;20316;-60
2023/06/11 04:43:23;;;;;;;8.50;6.03;;;;;;;19.49;100.00;100049.19;5023242;28;20254;-61
2023/06/11 04:45:58;;;;;;;7.43;5.90;;;;;;;19.55;100.00;100044.34;5014660;28;20178;-60
2023/06/11 04:48:23;;;;;;;6.77;6.27;;;;;;;19.71;100.00;100046.34;5014528;28;20662;-60
2023/06/11 04:50:50;;;;;;;6.37;5.90;;;;;;;19.75;100.00;100040.69;5010699;28;20313;-60
2023/06/11 04:53:21;;;;;;;6.50;5.97;;;;;;;19.73;100.00;100047.84;5023393;28;20201;-60
2023/06/11 04:55:54;;;;;;;7.27;6.67;;;;;;;19.82;100.00;100051.38;5014212;28;20190;-60
2023/06/11 04:58:21;;;;;;;7.47;6.77;;;;;;;20.00;100.00;100057.47;5014183;28;20944;-60
2023/06/11 05:00:47;;;;;;;7.30;6.53;;;;;;;20.20;100.00;100053.94;5010183;28;20233;-60
2023/06/11 05:03:16;;;;;;;6.90;6.30;;;;;;;20.21;100.00;100056.41;5023772;28;20539;-59
2023/06/11 05:05:42;;;;;;;8.23;6.07;;;;;;;20.23;100.00;100058.88;5013818;28;20183;-59
2023/06/11 05:08:07;;;;;;;7.07;6.13;;;;;;;20.09;100.00;100050.56;5012216;28;20205;-59
2023/06/11 05:10:33;;;;;;;5.97;5.43;;;;;;;20.19;100.00;100052.31;4997157;28;20289;-60
2023/06/11 05:12:58;;;;;;;6.53;5.90;;;;;;;20.35;100.00;100052.47;5025479;28;20226;-60
2023/06/11 05:15:23;;;;;;;6.27;5.83;;;;;;;20.37;100.00;100052.34;5013942;28;20185;-60
2023/06/11 05:17:48;;;;;;;6.23;5.70;;;;;;;20.43;100.00;100065.59;5014130;28;20305;-60
2023/06/11 05:20:14;;;;;;;6.57;5.93;;;;;;;20.54;100.00;100066.34;5005348;28;20183;-60
2023/06/11 05:22:39;;;;;;;6.73;6.07;;;;;;;20.60;100.00;100066.59;5027811;28;20190;-60
2023/06/11 05:25:05;;;;;;;6.37;5.77;;;;;;;20.64;100.00;100065.31;5013570;28;20206;-60
2023/06/11 05:27:31;;;;;;;6.37;5.77;;;;;;;20.60;100.00;100070.97;5014524;28;20245;-60
2023/06/11 05:29:57;;;;;;;7.43;5.83;;;;;;;20.68;100.00;100071.06;5001527;28;20210;-60
2023/06/11 05:32:22;;;;;;;7.00;6.30;;;;;;;20.82;100.00;100068.91;5018968;28;20245;-60
2023/06/11 05:34:49;;;;;;;6.60;5.93;;;;;;;20.81;100.00;100070.69;5014286;28;20652;-60
2023/06/11 05:37:15;;;;;;;6.83;6.13;;;;;;;20.91;100.00;100066.22;5013500;28;20218;-60
2023/06/11 05:39:41;;;;;;;6.87;5.70;;;;;;;21.07;100.00;100072.53;5014262;28;20672;-60
2023/06/11 05:42:06;;;;;;;6.30;5.80;;;;;;;21.24;100.00;100065.63;5019672;28;20226;-60
2023/06/11 05:44:31;;;;;;;6.63;5.93;;;;;;;21.37;100.00;100066.03;5013799;28;20206;-61
2023/06/11 05:46:57;;;;;;;5.80;5.33;;;;;;;21.37;100.00;100071.25;5012032;28;20538;-60
2023/06/11 05:49:22;;;;;;;6.30;5.70;;;;;;;21.64;100.00;100063.41;5013564;28;20191;-60
2023/06/11 05:51:47;;;;;;;5.70;5.20;;;;;;;21.82;100.00;100074.59;5017017;28;20229;-60
2023/06/11 05:54:13;;;;;;;6.00;5.50;;;;;;;21.93;100.00;100078.75;5015560;28;20178;-60
2023/06/11 05:56:38;;;;;;;6.23;5.70;;;;;;;22.23;98.60;100077.34;5013269;28;20179;-60
2023/06/11 05:59:03;;;;;;;7.83;5.53;;;;;;;22.67;96.86;100091.19;5028828;28;20290;-60
2023/06/11 06:01:29;;;;;;;6.40;5.57;;;;;;;22.87;94.43;100087.28;5014385;28;20238;-60
2023/06/11 06:03:54;;;;;;;6.30;5.70;;;;;;;23.36;92.10;100077.72;5017507;28;20182;-60
2023/06/11 06:06:19;;;;;;;5.80;5.30;;;;;;;23.79;89.32;100078.25;5012461;28;20174;-60
2023/06/11 06:08:45;;;;;;;5.90;5.50;;;;;;;23.76;87.40;100088.28;5012239;28;20260;-60
2023/06/11 06:11:10;;;;;;;5.30;4.90;;;;;;;24.49;84.44;100092.31;5011788;28;20312;-59
2023/06/11 06:13:35;;;;;;;6.00;5.40;;;;;;;24.83;80.56;100089.47;5011869;28;20222;-59
2023/06/11 06:16:01;;;;;;;6.40;5.15;;;;;;;25.00;80.35;100092.78;5012712;28;20635;-59
2023/06/11 06:18:27;;;;;;;5.20;4.70;;;;;;;25.53;75.84;100096.22;5012646;28;20194;-61
2023/06/11 06:20:53;;;;;;;5.72;5.15;;;;;;;25.82;75.59;100099.81;5009239;28;20544;-60
2023/06/11 06:23:18;;;;;;;7.90;5.68;;;;;;;26.17;70.45;100096.59;5022122;28;20182;-60
2023/06/11 06:25:43;;;;;;;5.90;5.30;;;;;;;26.67;65.06;100108.06;5012811;28;20207;-60
2023/06/11 06:28:09;;;;;;;5.93;5.32;;;;;;;26.95;61.41;100106.50;5012940;28;20181;-60
2023/06/11 06:30:35;;;;;;;5.72;5.28;;;;;;;26.64;64.58;100108.44;4993588;28;20237;-60
2023/06/11 06:33:00;;;;;;;5.38;4.97;;;;;;;26.36;64.74;100103.91;5024469;28;20684;-61
2023/06/11 06:35:25;;;;;;;5.68;5.13;;;;;;;26.85;63.41;100114.72;5012270;28;20553;-61
2023/06/11 06:37:51;;;;;;;5.30;4.93;;;;;;;26.84;60.85;100118.38;5013307;28;20193;-60
2023/06/11 06:40:16;;;;;;;5.18;4.60;;;;;;;27.09;61.45;100120.59;5004615;28;20182;-60
2023/06/11 06:42:42;;;;;;;5.03;4.63;;;;;;;27.09;60.80;100113.50;5026447;28;20189;-61
2023/06/11 06:45:08;;;;;;;4.82;4.43;;;;;;;27.62;58.79;100125.44;5012348;28;20183;-61
2023/06/11 06:47:33;;;;;;;6.45;5.00;;;;;;;28.01;53.45;100116.88;5012868;28;20179;-60
2023/06/11 06:49:59;;;;;;;5.43;4.93;;;;;;;28.57;51.42;100117.63;5012598;28;20194;-60
2023/06/11 06:52:24;;;;;;;4.75;4.35;;;;;;;28.07;52.63;100119.75;5018084;28;20253;-61
2023/06/11 06:54:51;;;;;;;5.50;5.00;;;;;;;27.54;55.79;100131.69;5012659;28;20725;-60
2023/06/11 06:57:17;;;;;;;6.38;4.40;;;;;;;27.90;53.73;100125.38;5012261;28;20293;-61
2023/06/11 06:59:43;;;;;;;5.57;4.13;;;;;;;28.21;51.82;100125.88;5012332;28;20183;-61
2023/06/11 07:02:09;;;;;;;4.50;4.15;;;;;;;27.62;52.60;100134.16;4991061;28;20297;-60
2023/06/11 07:04:34;;;;;;;4.90;4.50;;;;;;;26.99;57.56;100134.97;5012448;28;20294;-60
2023/06/11 07:06:59;;;;;;;6.95;4.97;;;;;;;27.72;56.78;100125.06;5012301;28;20223;-61
2023/06/11 07:09:25;;;;;;;5.28;4.80;;;;;;;27.94;54.13;100126.59;5012458;28;20649;-61
2023/06/11 07:11:52;;;;;;;8.45;4.40;;;;;;;28.07;53.59;100130.31;5016119;28;20234;-61
2023/06/11 07:14:18;;;;;;;4.53;4.13;;;;;;;29.51;48.78;100132.69;5013451;28;20171;-61
2023/06/11 07:16:43;;;;;;;5.00;4.50;;;;;;;29.97;45.50;100128.25;5014779;28;20233;-61
2023/06/11 07:19:08;;;;;;;5.43;4.35;;;;;;;29.11;46.60;100139.66;5004092;28;20187;-61
2023/06/11 07:21:35;;;;;;;5.05;4.55;;;;;;;28.97;46.91;100128.25;5003430;28;20283;-61
2023/06/11 07:24:04;;;;;;;4.72;4.32;;;;;;;29.11;48.98;100117.66;5015272;28;20187;-61
2023/06/11 07:26:30;;;;;;;4.22;3.65;;;;;;;29.37;45.99;100132.72;5011336;28;20517;-61
2023/06/11 07:28:55;;;;;;;5.15;4.43;;;;;;;28.90;47.42;100126.63;5007545;28;20203;-61
2023/06/11 07:31:20;;;;;;;11.82;5.97;;;;;;;28.95;48.64;100132.94;4972940;28;20230;-61
2023/06/11 07:33:47;;;;;;;4.53;4.13;;;;;;;29.38;45.97;100136.19;5011083;28;20175;-61
2023/06/11 07:36:12;;;;;;;5.18;4.43;;;;;;;29.77;45.28;100131.78;5011476;28;20198;-61
2023/06/11 07:38:38;;;;;;;5.35;4.85;;;;;;;29.50;45.66;100133.69;5011849;28;20179;-61
2023/06/11 07:41:03;;;;;;;5.68;4.35;;;;;;;30.42;42.71;100129.03;5008939;28;20538;-58
2023/06/11 07:43:28;;;;;;;4.57;4.18;;;;;;;29.72;43.91;100140.38;5019057;28;20182;-60
2023/06/11 07:45:54;;;;;;;4.47;4.03;;;;;;;30.23;44.26;100137.94;5011413;28;20175;-60
2023/06/11 07:48:20;;;;;;;5.43;4.50;;;;;;;31.52;40.14;100144.72;5011259;28;20183;-61
2023/06/11 07:50:45;;;;;;;6.55;4.50;;;;;;;31.10;41.24;100140.00;5007110;28;20241;-61
2023/06/11 07:53:12;;;;;;;5.93;4.93;;;;;;;32.88;37.36;100140.06;5021303;28;20641;-61
2023/06/11 07:55:38;;;;;;;5.30;4.72;;;;;;;33.26;35.16;100144.13;5010093;28;20257;-61
2023/06/11 07:58:03;;;;;;;4.60;4.15;;;;;;;31.73;37.63;100140.00;5011539;28;20266;-61
2023/06/11 08:00:28;;;;;;;4.68;4.28;;;;;;;31.78;37.06;100140.13;5004745;28;20237;-60
2023/06/11 08:02:54;;;;;;;5.00;4.60;;;;;;;31.73;37.80;100140.81;5023101;28;20265;-60
2023/06/11 08:05:19;;;;;;;9.65;4.20;;;;;;;32.18;37.33;100145.75;5011158;28;20229;-60
2023/06/11 08:07:46;;;;;;;5.07;4.15;;;;;;;34.20;33.90;100139.59;5011418;28;20209;-61
2023/06/11 08:10:11;;;;;;;4.38;3.97;;;;;;;34.77;34.15;100149.38;5002744;28;20298;-61
2023/06/11 08:12:36;;;;;;;6.93;4.30;;;;;;;34.60;32.80;100141.38;5024850;28;20245;-60
2023/06/11 08:15:02;;;;;;;5.50;3.97;;;;;;;33.88;33.87;100148.09;5011124;28;20645;-61
2023/06/11 08:17:28;;;;;;;4.57;4.18;;;;;;;32.96;33.90;100145.06;5011209;28;20233;-60
2023/06/11 08:19:53;;;;;;;5.90;4.55;;;;;;;33.15;35.07;100145.72;5011885;28;20194;-60
2023/06/11 08:22:18;;;;;;;5.35;4.22;;;;;;;32.42;36.66;100137.88;5016305;28;20225;-60
2023/06/11 08:24:44;;;;;;;5.07;4.00;;;;;;;33.39;34.43;100129.75;5010169;28;20203;-61
2023/06/11 08:27:09;;;;;;;5.65;4.32;;;;;;;33.55;33.30;100141.53;5010735;28;20179;-60
2023/06/11 08:29:35;;;;;;;5.13;3.90;;;;;;;35.30;30.97;100141.06;5001720;28;20235;-61
2023/06/11 08:32:00;;;;;;;4.45;4.13;;;;;;;35.05;31.05;100140.44;5012980;28;20232;-61
2023/06/11 08:34:25;;;;;;;4.65;4.28;;;;;;;33.33;32.22;100128.00;5011601;28;20187;-61
2023/06/11 08:36:51;;;;;;;6.43;4.32;;;;;;;33.23;33.72;100133.91;5010958;28;20202;-61
2023/06/11 08:39:16;;;;;;;9.00;4.60;;;;;;;33.05;33.98;100127.66;5011427;28;20175;-61
2023/06/11 08:41:42;;;;;;;4.78;4.32;;;;;;;32.44;34.82;100127.81;5013872;28;20226;-60
2023/06/11 08:44:08;;;;;;;7.60;4.85;;;;;;;30.84;36.29;100125.09;5013674;28;20691;-60
2023/06/11 08:46:38;;;;;;;6.55;4.35;;;;;;;31.20;36.62;100123.56;5010369;28;20194;-60
2023/06/11 08:49:08;;;;;;;7.05;4.82;;;;;;;31.29;36.03;100129.41;5011375;28;20590;-60
2023/06/11 08:51:38;;;;;;;5.07;4.30;;;;;;;30.68;36.93;100123.78;5012727;28;20222;-60
2023/06/11 08:54:08;;;;;;;4.88;4.47;;;;;;;30.55;37.67;100119.38;5017346;28;20183;-60
2023/06/11 08:56:34;;;;;;;4.82;4.10;;;;;;;30.72;36.45;100117.00;5013744;28;20183;-60
2023/06/11 08:59:00;;;;;;;5.35;4.35;;;;;;;30.83;35.21;100123.47;5014638;28;20221;-60
2023/06/11 09:01:26;;;;;;;5.78;5.13;;;;;;;30.65;36.00;100127.69;5014880;28;20329;-60
2023/06/11 09:03:51;;;;;;;11.07;4.55;;;;;;;30.99;36.86;100122.91;5018988;28;20269;-60
2023/06/11 09:06:17;;;;;;;5.38;4.13;;;;;;;31.63;35.29;100114.72;5013824;28;20183;-60
2023/06/11 09:08:43;;;;;;;11.35;5.15;;;;;;;32.31;34.07;100118.19;5014426;28;20194;-60
2023/06/11 09:11:08;;;;;;;5.45;4.38;;;;;;;33.79;31.31;100111.09;5012635;28;20289;-60
2023/06/11 09:13:34;;;;;;;7.85;4.32;;;;;;;33.09;31.81;100114.69;5021452;28;20226;-60
2023/06/11 09:15:59;;;;;;;8.38;4.57;;;;;;;32.30;31.65;100110.41;5013663;28;20183;-60
2023/06/11 09:18:26;;;;;;;6.57;5.05;;;;;;;31.63;31.80;100117.38;5014296;28;20195;-60
2023/06/11 09:20:53;;;;;;;6.82;5.53;;;;;;;31.23;32.58;100118.63;5010356;28;20240;-61
2023/06/11 09:23:28;;;;;;;5.93;5.32;;;;;;;31.52;33.41;100112.81;5023167;28;20197;-60
2023/06/11 09:25:53;;;;;;;7.47;6.80;;;;;;;32.28;31.99;100109.84;5013503;28;20672;-60
2023/06/11 09:28:19;;;;;;;7.18;4.93;;;;;;;32.46;31.66;100115.09;5013731;28;20186;-60
2023/06/11 09:30:55;;;;;;;5.00;4.60;;;;;;;31.55;31.58;100107.03;4992838;28;20655;-60
2023/06/11 09:33:20;;;;;;;8.50;4.72;;;;;;;30.66;32.91;100107.25;5022571;28;20198;-60
2023/06/11 09:35:46;;;;;;;7.90;4.75;;;;;;;31.57;31.43;100110.28;5013675;28;20182;-60
2023/06/11 09:38:15;;;;;;;7.30;4.38;;;;;;;33.26;28.92;100112.94;5013984;28;20179;-60
2023/06/11 09:40:45;;;;;;;4.85;4.45;;;;;;;33.08;29.53;100110.41;5008692;28;20540;-60
2023/06/11 09:43:10;;;;;;;7.47;4.40;;;;;;;33.66;29.66;100108.69;5023401;28;20194;-61
2023/06/11 09:45:37;;;;;;;7.10;4.18;;;;;;;32.58;29.60;100109.78;5013486;28;20205;-60
2023/06/11 09:48:03;;;;;;;8.38;4.40;;;;;;;32.04;29.79;100123.03;5013566;28;20265;-60
2023/06/11 09:50:32;;;;;;;6.28;4.93;;;;;;;32.07;29.88;100113.78;5006735;28;20241;-60
2023/06/11 09:53:02;;;;;;;4.28;3.78;;;;;;;32.08;28.98;100123.38;5024792;28;20186;-60
2023/06/11 09:55:38;;;;;;;4.93;4.50;;;;;;;33.06;28.28;100115.97;5012917;28;20262;-60
2023/06/11 09:58:03;;;;;;;7.78;4.43;;;;;;;34.37;27.22;100112.94;5013371;28;20182;-60
2023/06/11 10:00:30;;;;;;;4.50;4.13;;;;;;;34.22;26.51;100116.13;5006491;28;20751;-60
2023/06/11 10:02:56;;;;;;;5.00;4.00;;;;;;;32.67;27.32;100120.91;5012154;28;20199;-60
2023/06/11 10:05:22;;;;;;;5.50;3.95;;;;;;;32.62;27.39;100118.13;5011974;28;20509;-60
2023/06/11 10:08:02;;;;;;;5.80;4.45;;;;;;;32.99;27.30;100113.44;5012760;28;20270;-61
2023/06/11 10:10:29;;;;;;;6.50;4.10;;;;;;;31.23;28.31;100112.50;5006028;28;20709;-60
2023/06/11 10:12:55;;;;;;;8.73;4.75;;;;;;;30.89;29.16;100109.31;5024657;28;20233;-60
2023/06/11 10:15:23;;;;;;;5.35;4.47;;;;;;;30.86;29.38;100112.41;5011432;28;20190;-60
2023/06/11 10:17:50;;;;;;;4.75;4.13;;;;;;;30.12;30.52;100110.25;5013077;28;20186;-60
2023/06/11 10:20:17;;;;;;;4.68;4.18;;;;;;;32.11;28.75;100110.44;5004356;28;20260;-61
2023/06/11 10:22:43;;;;;;;8.93;4.47;;;;;;;32.79;27.84;100110.28;5026379;28;20187;-60
2023/06/11 10:25:08;;;;;;;5.72;4.35;;;;;;;34.81;24.47;100112.31;5012277;28;20206;-61
2023/06/11 10:27:36;;;;;;;6.68;4.32;;;;;;;31.55;27.16;100115.00;5013488;28;20193;-60
2023/06/11 10:30:02;;;;;;;5.47;4.22;;;;;;;31.69;27.11;100107.72;4999658;28;20210;-61
2023/06/11 10:32:27;;;;;;;14.02;4.53;;;;;;;32.28;26.60;100109.84;5001585;28;20214;-60
2023/06/11 10:34:56;;;;;;;6.93;4.05;;;;;;;31.31;28.25;100104.25;5012470;28;20274;-61
2023/06/11 10:37:41;;;;;;;5.22;3.65;;;;;;;30.92;28.23;100114.19;5012783;28;20179;-60
2023/06/11 10:40:08;;;;;;;5.85;4.32;;;;;;;31.68;27.21;100104.25;5003224;28;20696;-60
2023/06/11 10:42:38;;;;;;;8.27;4.30;;;;;;;29.90;30.25;100112.41;5026975;28;20580;-60
2023/06/11 10:45:08;;;;;;;6.95;4.38;;;;;;;28.50;32.05;100104.41;5012200;28;20207;-60
2023/06/11 10:47:42;;;;;;;5.10;4.45;;;;;;;28.05;32.02;100098.00;5012451;28;20652;-60
2023/06/11 10:50:10;;;;;;;4.68;4.15;;;;;;;28.19;32.18;100097.00;5003241;28;20214;-60
2023/06/11 10:52:55;;;;;;;8.70;4.53;;;;;;;28.20;32.98;100095.19;5026455;28;20179;-60
2023/06/11 10:55:21;;;;;;;5.70;4.68;;;;;;;28.23;32.45;100094.78;5012090;28;20174;-60
2023/06/11 10:57:51;;;;;;;8.98;4.57;;;;;;;28.01;33.91;100102.84;5012143;28;20189;-61
2023/06/11 11:00:16;;;;;;;6.28;4.80;;;;;;;27.96;32.96;100090.22;4992386;28;20225;-61
2023/06/11 11:02:42;;;;;;;8.43;4.93;;;;;;;27.79;33.96;100094.22;5011432;28;20661;-61
2023/06/11 11:05:09;;;;;;;5.05;4.60;;;;;;;28.20;35.20;100100.47;5012037;28;20239;-60
2023/06/11 11:07:35;;;;;;;5.00;4.47;;;;;;;28.11;32.88;100091.91;5000014;28;20187;-60
2023/06/11 11:10:02;;;;;;;9.45;4.72;;;;;;;27.91;34.00;100089.16;5012285;28;20217;-61
2023/06/11 11:12:34;;;;;;;7.95;5.10;;;;;;;27.88;34.27;100082.44;5001431;28;20235;-60
2023/06/11 11:15:00;;;;;;;7.75;4.57;;;;;;;28.17;33.90;100078.69;5006795;28;20214;-61
2023/06/11 11:17:25;;;;;;;5.60;5.10;;;;;;;28.58;33.10;100076.94;5017171;28;20254;-61
2023/06/11 11:19:50;;;;;;;5.22;4.72;;;;;;;28.71;33.56;100083.28;5012209;28;20281;-61